Погода Теленгит-Сортогойна 2 недели

Республика Алтай, Россия

18 - 31 июля
  • 18июля
    Сегодня
    +11°
    +23°
    Небольшая облачность
    ВремяПогодаТемператураВлажностьДавлениеВетер, м/сВероятность осадков
    01:00Небольшая облачность+12°C87 %617 мм1.4 м/с18 %
    04:00Ясно и безоблачно+10°C86 %616 мм1.2 м/с4 %
    07:00Ясно и безоблачно+11°C82 %617 мм1.2 м/с2 %
    10:00Ясно и безоблачно+15°C63 %618 мм1.2 м/с2 %
    13:00Небольшая облачность+20°C40 %618 мм1.7 м/с10 %
    16:00Небольшая облачность+21°C32 %617 мм2.9 м/с14 %
    19:00Практически безоблачно+19°C34 %616 мм4.0 м/с3 %
    22:00Ясно и безоблачно+17°C60 %615 мм3.4 м/с2 %
  • 19июля
    Пятница
    +10°
    +24°
    Практически безоблачно
    ВремяПогодаТемператураВлажностьДавлениеВетер, м/сВероятность осадков
    01:00Облачно с прояснениями+14°C68 %615 мм1.6 м/с2 %
    04:00Небольшая облачность+12°C70 %614 мм1.7 м/с3 %
    07:00Облачно с прояснениями+13°C63 %615 мм1.3 м/с2 %
    10:00Облачно с прояснениями+18°C51 %616 мм1.3 м/с13 %
    13:00Практически безоблачно+22°C38 %616 мм1.8 м/с19 %
    16:00Небольшая облачность+23°C33 %616 мм3.3 м/с19 %
    19:00Небольшая облачность+20°C44 %616 мм4.0 м/с29 %
    22:00Практически безоблачно+17°C65 %616 мм3.7 м/с13 %
  • 20июля
    Суббота
    +10°
    +24°
    Ясно и безоблачно
    ВремяПогодаТемператураВлажностьДавлениеВетер, м/сВероятность осадков
    01:00Практически безоблачно+13°C74 %615 мм1.6 м/с1 %
    04:00Практически безоблачно+12°C75 %615 мм1.3 м/с2 %
    07:00Облачно с прояснениями+12°C68 %616 мм1.2 м/с3 %
    10:00Ясно и безоблачно+17°C53 %617 мм1.3 м/с4 %
    13:00Ясно и безоблачно+21°C36 %617 мм1.5 м/с4 %
    16:00Практически безоблачно+24°C32 %617 мм3.5 м/с33 %
    19:00Практически безоблачно+19°C38 %616 мм3.2 м/с30 %
    22:00Практически безоблачно+16°C73 %617 мм3.8 м/с29 %
  • 21июля
    Воскресенье
    +10°
    +22°
    Практически безоблачно
    ВремяПогодаТемператураВлажностьДавлениеВетер, м/сВероятность осадков
    01:00Ясно и безоблачно+13°C76 %616 мм1.8 м/с2 %
    04:00Ясно и безоблачно+11°C84 %615 мм1.5 м/с2 %
    07:00Практически безоблачно+12°C76 %616 мм1.6 м/с2 %
    10:00Облачно с прояснениями+17°C53 %617 мм1.3 м/с7 %
    13:00Практически безоблачно+16°C33 %615 мм2.5 м/с44 %
    16:00Практически безоблачно+21°C26 %616 мм4.2 м/с30 %
    19:00Практически безоблачно+17°C30 %615 мм4.5 м/с28 %
    22:00Практически безоблачно+16°C57 %616 мм3.4 м/с17 %
  • 22июля
    Понедельник
    +9°
    +23°
    Ясно и безоблачно
    ВремяПогодаТемператураВлажностьДавлениеВетер, м/сВероятность осадков
    01:00Практически безоблачно+13°C78 %616 мм1.9 м/с9 %
    04:00Ясно и безоблачно+11°C80 %616 мм1.4 м/с9 %
    07:00Ясно и безоблачно+11°C72 %617 мм1.4 м/с15 %
    10:00Ясно и безоблачно+14°C52 %618 мм1.3 м/с20 %
    13:00Ясно и безоблачно+19°C30 %618 мм1.9 м/с30 %
    16:00Небольшая облачность+22°C24 %618 мм3.2 м/с39 %
    19:00Небольшая облачность+17°C30 %617 мм4.7 м/с47 %
    22:00Небольшая облачность+15°C52 %618 мм3.7 м/с20 %
Мы используем cookies
Соглашаюсь